sensor_id;sensor_type;location;lat;lon;timestamp;temperature;humidity
76878;DHT22;65843;50.692;12.844;2023-08-06T00:00:00;18.30;74.90
76878;DHT22;65843;50.692;12.844;2023-08-06T00:01:01;18.30;75.00
76878;DHT22;65843;50.692;12.844;2023-08-06T00:02:02;18.30;75.00
76878;DHT22;65843;50.692;12.844;2023-08-06T00:03:03;18.30;75.10
76878;DHT22;65843;50.692;12.844;2023-08-06T00:04:04;18.30;75.10
76878;DHT22;65843;50.692;12.844;2023-08-06T00:05:05;18.30;75.00
76878;DHT22;65843;50.692;12.844;2023-08-06T00:06:06;18.30;75.00
76878;DHT22;65843;50.692;12.844;2023-08-06T00:07:07;18.30;75.00
76878;DHT22;65843;50.692;12.844;2023-08-06T00:08:08;18.30;75.00
76878;DHT22;65843;50.692;12.844;2023-08-06T00:09:09;18.30;75.10
76878;DHT22;65843;50.692;12.844;2023-08-06T00:10:10;18.30;75.00
76878;DHT22;65843;50.692;12.844;2023-08-06T00:11:11;18.30;75.10
76878;DHT22;65843;50.692;12.844;2023-08-06T00:12:13;18.30;75.20
76878;DHT22;65843;50.692;12.844;2023-08-06T00:13:14;18.30;75.20
76878;DHT22;65843;50.692;12.844;2023-08-06T00:14:15;18.30;75.10
76878;DHT22;65843;50.692;12.844;2023-08-06T00:15:17;18.30;75.00
76878;DHT22;65843;50.692;12.844;2023-08-06T00:16:18;18.30;75.00
76878;DHT22;65843;50.692;12.844;2023-08-06T00:17:19;18.30;74.90
76878;DHT22;65843;50.692;12.844;2023-08-06T00:18:20;18.30;74.90
76878;DHT22;65843;50.692;12.844;2023-08-06T00:19:21;18.30;74.80
76878;DHT22;65843;50.692;12.844;2023-08-06T00:20:22;18.30;74.80
76878;DHT22;65843;50.692;12.844;2023-08-06T00:21:23;18.30;74.80
76878;DHT22;65843;50.692;12.844;2023-08-06T00:22:24;18.30;74.90
76878;DHT22;65843;50.692;12.844;2023-08-06T00:23:25;18.30;74.90
76878;DHT22;65843;50.692;12.844;2023-08-06T00:24:26;18.30;74.80
76878;DHT22;65843;50.692;12.844;2023-08-06T00:25:26;18.30;74.80
76878;DHT22;65843;50.692;12.844;2023-08-06T00:26:27;18.30;74.80
76878;DHT22;65843;50.692;12.844;2023-08-06T00:27:28;18.30;74.80
76878;DHT22;65843;50.692;12.844;2023-08-06T00:28:29;18.30;74.80
76878;DHT22;65843;50.692;12.844;2023-08-06T00:29:30;18.30;74.90
76878;DHT22;65843;50.692;12.844;2023-08-06T00:30:31;18.30;75.00
76878;DHT22;65843;50.692;12.844;2023-08-06T00:31:32;18.30;74.70
76878;DHT22;65843;50.692;12.844;2023-08-06T00:32:33;18.30;74.80
76878;DHT22;65843;50.692;12.844;2023-08-06T00:33:34;18.30;74.80
76878;DHT22;65843;50.692;12.844;2023-08-06T00:34:35;18.20;75.00
76878;DHT22;65843;50.692;12.844;2023-08-06T00:35:36;18.20;74.80
76878;DHT22;65843;50.692;12.844;2023-08-06T00:36:37;18.30;74.90
76878;DHT22;65843;50.692;12.844;2023-08-06T00:37:38;18.20;74.90
76878;DHT22;65843;50.692;12.844;2023-08-06T00:38:39;18.20;74.90
76878;DHT22;65843;50.692;12.844;2023-08-06T00:39:39;18.20;74.90
76878;DHT22;65843;50.692;12.844;2023-08-06T00:40:40;18.20;75.00
76878;DHT22;65843;50.692;12.844;2023-08-06T00:41:41;18.20;75.00
76878;DHT22;65843;50.692;12.844;2023-08-06T00:42:42;18.20;74.90
76878;DHT22;65843;50.692;12.844;2023-08-06T00:43:45;18.20;75.00
76878;DHT22;65843;50.692;12.844;2023-08-06T00:44:46;18.20;75.00
76878;DHT22;65843;50.692;12.844;2023-08-06T00:45:47;18.20;74.90
76878;DHT22;65843;50.692;12.844;2023-08-06T00:46:48;18.20;74.80
76878;DHT22;65843;50.692;12.844;2023-08-06T00:47:49;18.20;74.90
76878;DHT22;65843;50.692;12.844;2023-08-06T00:48:50;18.20;75.00
76878;DHT22;65843;50.692;12.844;2023-08-06T00:49:51;18.20;75.00
76878;DHT22;65843;50.692;12.844;2023-08-06T00:50:52;18.20;75.00
76878;DHT22;65843;50.692;12.844;2023-08-06T00:51:53;18.20;74.90
76878;DHT22;65843;50.692;12.844;2023-08-06T00:52:54;18.20;74.90
76878;DHT22;65843;50.692;12.844;2023-08-06T00:53:55;18.20;75.00
76878;DHT22;65843;50.692;12.844;2023-08-06T00:54:56;18.20;75.00
76878;DHT22;65843;50.692;12.844;2023-08-06T00:55:57;18.20;75.10
76878;DHT22;65843;50.692;12.844;2023-08-06T00:56:59;18.20;75.10
76878;DHT22;65843;50.692;12.844;2023-08-06T00:58:01;18.30;75.10
76878;DHT22;65843;50.692;12.844;2023-08-06T00:59:03;18.30;75.10
76878;DHT22;65843;50.692;12.844;2023-08-06T01:00:04;18.30;75.10
76878;DHT22;65843;50.692;12.844;2023-08-06T01:01:05;18.20;75.10
76878;DHT22;65843;50.692;12.844;2023-08-06T01:02:06;18.30;75.00
76878;DHT22;65843;50.692;12.844;2023-08-06T01:03:07;18.30;74.90
76878;DHT22;65843;50.692;12.844;2023-08-06T01:04:08;18.30;75.00
76878;DHT22;65843;50.692;12.844;2023-08-06T01:05:09;18.30;75.00
76878;DHT22;65843;50.692;12.844;2023-08-06T01:06:10;18.30;74.90
76878;DHT22;65843;50.692;12.844;2023-08-06T01:10:39;18.30;75.00
76878;DHT22;65843;50.692;12.844;2023-08-06T01:12:03;18.30;74.80
76878;DHT22;65843;50.692;12.844;2023-08-06T01:14:18;18.30;74.70
76878;DHT22;65843;50.692;12.844;2023-08-06T01:15:24;18.30;74.70
76878;DHT22;65843;50.692;12.844;2023-08-06T01:16:28;18.30;74.70
76878;DHT22;65843;50.692;12.844;2023-08-06T01:17:31;18.30;74.70
76878;DHT22;65843;50.692;12.844;2023-08-06T01:18:32;18.30;74.80
76878;DHT22;65843;50.692;12.844;2023-08-06T01:19:33;18.30;74.80
76878;DHT22;65843;50.692;12.844;2023-08-06T01:20:34;18.20;74.80
76878;DHT22;65843;50.692;12.844;2023-08-06T01:21:35;18.20;74.80
76878;DHT22;65843;50.692;12.844;2023-08-06T01:22:36;18.20;74.90
76878;DHT22;65843;50.692;12.844;2023-08-06T01:23:37;18.20;74.80
76878;DHT22;65843;50.692;12.844;2023-08-06T01:24:38;18.20;74.90
76878;DHT22;65843;50.692;12.844;2023-08-06T01:26:02;18.20;74.90
76878;DHT22;65843;50.692;12.844;2023-08-06T01:28:16;18.20;75.00
76878;DHT22;65843;50.692;12.844;2023-08-06T01:29:23;18.20;75.00
76878;DHT22;65843;50.692;12.844;2023-08-06T01:30:26;18.20;75.00
76878;DHT22;65843;50.692;12.844;2023-08-06T01:31:30;18.20;75.00
76878;DHT22;65843;50.692;12.844;2023-08-06T01:32:32;18.20;74.90
76878;DHT22;65843;50.692;12.844;2023-08-06T01:33:34;18.20;74.90
76878;DHT22;65843;50.692;12.844;2023-08-06T01:34:40;18.20;74.90
76878;DHT22;65843;50.692;12.844;2023-08-06T01:35:42;18.20;74.90
76878;DHT22;65843;50.692;12.844;2023-08-06T01:36:43;18.20;74.80
76878;DHT22;65843;50.692;12.844;2023-08-06T01:37:44;18.20;74.70
76878;DHT22;65843;50.692;12.844;2023-08-06T01:38:46;18.20;74.80
76878;DHT22;65843;50.692;12.844;2023-08-06T01:39:47;18.20;74.80
76878;DHT22;65843;50.692;12.844;2023-08-06T01:40:48;18.20;74.80
76878;DHT22;65843;50.692;12.844;2023-08-06T01:41:48;18.20;74.80
76878;DHT22;65843;50.692;12.844;2023-08-06T01:42:49;18.20;74.70
76878;DHT22;65843;50.692;12.844;2023-08-06T01:43:50;18.20;74.80
76878;DHT22;65843;50.692;12.844;2023-08-06T01:44:51;18.20;74.80
76878;DHT22;65843;50.692;12.844;2023-08-06T01:45:52;18.20;74.90
76878;DHT22;65843;50.692;12.844;2023-08-06T01:46:53;18.20;74.90
76878;DHT22;65843;50.692;12.844;2023-08-06T01:47:54;18.20;75.00
76878;DHT22;65843;50.692;12.844;2023-08-06T01:48:55;18.20;75.00
76878;DHT22;65843;50.692;12.844;2023-08-06T01:49:56;18.20;74.90
76878;DHT22;65843;50.692;12.844;2023-08-06T01:50:57;18.20;75.00
76878;DHT22;65843;50.692;12.844;2023-08-06T01:51:58;18.20;75.00
76878;DHT22;65843;50.692;12.844;2023-08-06T01:52:58;18.30;74.90
76878;DHT22;65843;50.692;12.844;2023-08-06T01:53:59;18.30;74.90
76878;DHT22;65843;50.692;12.844;2023-08-06T01:55:00;18.30;74.90
76878;DHT22;65843;50.692;12.844;2023-08-06T01:56:01;18.30;74.90
76878;DHT22;65843;50.692;12.844;2023-08-06T01:57:02;18.30;74.80
76878;DHT22;65843;50.692;12.844;2023-08-06T01:58:03;18.30;74.80
76878;DHT22;65843;50.692;12.844;2023-08-06T01:59:04;18.30;74.70
76878;DHT22;65843;50.692;12.844;2023-08-06T02:00:05;18.30;74.80
76878;DHT22;65843;50.692;12.844;2023-08-06T02:01:06;18.30;74.70
76878;DHT22;65843;50.692;12.844;2023-08-06T02:02:07;18.30;74.80
76878;DHT22;65843;50.692;12.844;2023-08-06T02:03:08;18.30;74.80
76878;DHT22;65843;50.692;12.844;2023-08-06T02:04:09;18.30;74.70
76878;DHT22;65843;50.692;12.844;2023-08-06T02:05:10;18.30;74.70
76878;DHT22;65843;50.692;12.844;2023-08-06T02:06:11;18.20;74.70
76878;DHT22;65843;50.692;12.844;2023-08-06T02:07:11;18.20;74.70
76878;DHT22;65843;50.692;12.844;2023-08-06T02:08:12;18.20;74.80
76878;DHT22;65843;50.692;12.844;2023-08-06T02:09:13;18.20;74.80
76878;DHT22;65843;50.692;12.844;2023-08-06T02:10:14;18.20;74.80
76878;DHT22;65843;50.692;12.844;2023-08-06T02:11:15;18.20;74.70
76878;DHT22;65843;50.692;12.844;2023-08-06T02:12:16;18.20;74.70
76878;DHT22;65843;50.692;12.844;2023-08-06T02:13:17;18.20;74.80
76878;DHT22;65843;50.692;12.844;2023-08-06T02:14:18;18.20;74.70
76878;DHT22;65843;50.692;12.844;2023-08-06T02:15:18;18.20;74.80
76878;DHT22;65843;50.692;12.844;2023-08-06T02:16:19;18.20;74.80
76878;DHT22;65843;50.692;12.844;2023-08-06T02:17:20;18.20;74.70
76878;DHT22;65843;50.692;12.844;2023-08-06T02:18:21;18.20;74.70
76878;DHT22;65843;50.692;12.844;2023-08-06T02:19:22;18.20;74.70
76878;DHT22;65843;50.692;12.844;2023-08-06T02:20:23;18.20;74.70
76878;DHT22;65843;50.692;12.844;2023-08-06T02:21:24;18.20;74.90
76878;DHT22;65843;50.692;12.844;2023-08-06T02:22:25;18.20;74.90
76878;DHT22;65843;50.692;12.844;2023-08-06T02:23:26;18.20;74.90
76878;DHT22;65843;50.692;12.844;2023-08-06T02:24:27;18.20;74.90
76878;DHT22;65843;50.692;12.844;2023-08-06T02:25:28;18.20;74.90
76878;DHT22;65843;50.692;12.844;2023-08-06T02:26:29;18.20;74.90
76878;DHT22;65843;50.692;12.844;2023-08-06T02:27:30;18.20;75.00
76878;DHT22;65843;50.692;12.844;2023-08-06T02:28:31;18.20;75.00
76878;DHT22;65843;50.692;12.844;2023-08-06T02:29:32;18.20;75.00
76878;DHT22;65843;50.692;12.844;2023-08-06T02:30:32;18.20;75.10
76878;DHT22;65843;50.692;12.844;2023-08-06T02:31:33;18.20;75.00
76878;DHT22;65843;50.692;12.844;2023-08-06T02:32:34;18.20;75.00
76878;DHT22;65843;50.692;12.844;2023-08-06T02:33:36;18.20;75.00
76878;DHT22;65843;50.692;12.844;2023-08-06T02:34:37;18.20;75.00
76878;DHT22;65843;50.692;12.844;2023-08-06T02:35:38;18.20;75.00
76878;DHT22;65843;50.692;12.844;2023-08-06T02:36:39;18.20;75.00
76878;DHT22;65843;50.692;12.844;2023-08-06T02:37:40;18.20;75.00
76878;DHT22;65843;50.692;12.844;2023-08-06T02:38:41;18.20;75.00
76878;DHT22;65843;50.692;12.844;2023-08-06T02:39:42;18.20;75.00
76878;DHT22;65843;50.692;12.844;2023-08-06T02:40:46;18.20;74.90
76878;DHT22;65843;50.692;12.844;2023-08-06T02:41:47;18.20;74.90
76878;DHT22;65843;50.692;12.844;2023-08-06T02:42:48;18.30;75.00
76878;DHT22;65843;50.692;12.844;2023-08-06T02:43:49;18.20;75.00
76878;DHT22;65843;50.692;12.844;2023-08-06T02:44:50;18.20;74.90
76878;DHT22;65843;50.692;12.844;2023-08-06T02:45:51;18.30;74.90
76878;DHT22;65843;50.692;12.844;2023-08-06T02:46:52;18.30;74.90
76878;DHT22;65843;50.692;12.844;2023-08-06T02:47:53;18.20;74.90
76878;DHT22;65843;50.692;12.844;2023-08-06T02:48:54;18.30;75.00
76878;DHT22;65843;50.692;12.844;2023-08-06T02:49:55;18.20;75.00
76878;DHT22;65843;50.692;12.844;2023-08-06T02:50:59;18.30;74.80
76878;DHT22;65843;50.692;12.844;2023-08-06T02:52:00;18.20;75.00
76878;DHT22;65843;50.692;12.844;2023-08-06T02:53:01;18.20;75.00
76878;DHT22;65843;50.692;12.844;2023-08-06T02:54:01;18.20;75.00
76878;DHT22;65843;50.692;12.844;2023-08-06T02:55:03;18.20;75.00
76878;DHT22;65843;50.692;12.844;2023-08-06T02:56:04;18.20;75.00
76878;DHT22;65843;50.692;12.844;2023-08-06T02:57:05;18.20;75.00
76878;DHT22;65843;50.692;12.844;2023-08-06T02:58:06;18.20;75.10
76878;DHT22;65843;50.692;12.844;2023-08-06T02:59:07;18.20;75.10
76878;DHT22;65843;50.692;12.844;2023-08-06T03:00:08;18.20;75.00
76878;DHT22;65843;50.692;12.844;2023-08-06T03:01:09;18.20;75.20
76878;DHT22;65843;50.692;12.844;2023-08-06T03:02:10;18.20;75.10
76878;DHT22;65843;50.692;12.844;2023-08-06T03:03:11;18.20;75.20
76878;DHT22;65843;50.692;12.844;2023-08-06T03:04:12;18.20;75.30
76878;DHT22;65843;50.692;12.844;2023-08-06T03:05:13;18.20;75.30
76878;DHT22;65843;50.692;12.844;2023-08-06T03:06:14;18.20;75.30
76878;DHT22;65843;50.692;12.844;2023-08-06T03:07:15;18.20;75.20
76878;DHT22;65843;50.692;12.844;2023-08-06T03:08:15;18.20;75.20
76878;DHT22;65843;50.692;12.844;2023-08-06T03:09:17;18.20;75.10
76878;DHT22;65843;50.692;12.844;2023-08-06T03:10:18;18.20;75.20
76878;DHT22;65843;50.692;12.844;2023-08-06T03:11:19;18.20;75.30
76878;DHT22;65843;50.692;12.844;2023-08-06T03:12:20;18.20;75.30
76878;DHT22;65843;50.692;12.844;2023-08-06T03:13:21;18.20;75.30
76878;DHT22;65843;50.692;12.844;2023-08-06T03:14:21;18.20;75.30
76878;DHT22;65843;50.692;12.844;2023-08-06T03:15:22;18.20;75.40
76878;DHT22;65843;50.692;12.844;2023-08-06T03:16:23;18.20;75.40
76878;DHT22;65843;50.692;12.844;2023-08-06T03:17:24;18.20;75.40
76878;DHT22;65843;50.692;12.844;2023-08-06T03:18:25;18.20;75.40
76878;DHT22;65843;50.692;12.844;2023-08-06T03:19:26;18.20;75.40
76878;DHT22;65843;50.692;12.844;2023-08-06T03:20:27;18.20;75.50
76878;DHT22;65843;50.692;12.844;2023-08-06T03:21:28;18.20;75.30
76878;DHT22;65843;50.692;12.844;2023-08-06T03:22:29;18.20;75.40
76878;DHT22;65843;50.692;12.844;2023-08-06T03:23:30;18.20;75.40
76878;DHT22;65843;50.692;12.844;2023-08-06T03:24:31;18.20;75.40
76878;DHT22;65843;50.692;12.844;2023-08-06T03:25:34;18.20;75.40
76878;DHT22;65843;50.692;12.844;2023-08-06T03:26:35;18.20;75.40
76878;DHT22;65843;50.692;12.844;2023-08-06T03:27:36;18.20;75.30
76878;DHT22;65843;50.692;12.844;2023-08-06T03:28:38;18.30;75.30
76878;DHT22;65843;50.692;12.844;2023-08-06T03:29:39;18.30;75.30
76878;DHT22;65843;50.692;12.844;2023-08-06T03:30:40;18.20;75.30
76878;DHT22;65843;50.692;12.844;2023-08-06T03:31:41;18.30;75.30
76878;DHT22;65843;50.692;12.844;2023-08-06T03:32:42;18.20;75.30
76878;DHT22;65843;50.692;12.844;2023-08-06T03:33:43;18.20;75.40
76878;DHT22;65843;50.692;12.844;2023-08-06T03:34:44;18.20;75.30
76878;DHT22;65843;50.692;12.844;2023-08-06T03:35:45;18.20;75.40
76878;DHT22;65843;50.692;12.844;2023-08-06T03:36:46;18.20;75.30
76878;DHT22;65843;50.692;12.844;2023-08-06T03:37:46;18.20;75.30
76878;DHT22;65843;50.692;12.844;2023-08-06T03:38:47;18.20;75.40
76878;DHT22;65843;50.692;12.844;2023-08-06T03:39:50;18.20;75.30
76878;DHT22;65843;50.692;12.844;2023-08-06T03:40:50;18.20;75.40
76878;DHT22;65843;50.692;12.844;2023-08-06T03:41:51;18.20;75.40
76878;DHT22;65843;50.692;12.844;2023-08-06T03:42:52;18.20;75.50
76878;DHT22;65843;50.692;12.844;2023-08-06T03:43:53;18.20;75.50
76878;DHT22;65843;50.692;12.844;2023-08-06T03:44:54;18.20;75.50
76878;DHT22;65843;50.692;12.844;2023-08-06T03:45:55;18.20;75.50
76878;DHT22;65843;50.692;12.844;2023-08-06T03:46:56;18.20;75.50
76878;DHT22;65843;50.692;12.844;2023-08-06T03:47:57;18.20;75.50
76878;DHT22;65843;50.692;12.844;2023-08-06T03:48:58;18.20;75.50
76878;DHT22;65843;50.692;12.844;2023-08-06T03:49:59;18.20;75.50
76878;DHT22;65843;50.692;12.844;2023-08-06T03:51:00;18.20;75.60
76878;DHT22;65843;50.692;12.844;2023-08-06T03:52:02;18.20;75.70
76878;DHT22;65843;50.692;12.844;2023-08-06T03:53:03;18.20;75.60
76878;DHT22;65843;50.692;12.844;2023-08-06T03:54:04;18.20;75.70
76878;DHT22;65843;50.692;12.844;2023-08-06T03:55:05;18.10;75.60
76878;DHT22;65843;50.692;12.844;2023-08-06T03:56:06;18.20;75.60
76878;DHT22;65843;50.692;12.844;2023-08-06T03:57:07;18.10;75.60
76878;DHT22;65843;50.692;12.844;2023-08-06T03:58:08;18.20;75.70
76878;DHT22;65843;50.692;12.844;2023-08-06T03:59:09;18.20;75.70
76878;DHT22;65843;50.692;12.844;2023-08-06T04:00:10;18.20;75.70
76878;DHT22;65843;50.692;12.844;2023-08-06T04:01:11;18.20;75.70
76878;DHT22;65843;50.692;12.844;2023-08-06T04:02:12;18.10;75.70
76878;DHT22;65843;50.692;12.844;2023-08-06T04:03:13;18.20;75.70
76878;DHT22;65843;50.692;12.844;2023-08-06T04:04:14;18.20;75.70
76878;DHT22;65843;50.692;12.844;2023-08-06T04:05:15;18.20;75.70
76878;DHT22;65843;50.692;12.844;2023-08-06T04:06:16;18.20;75.70
76878;DHT22;65843;50.692;12.844;2023-08-06T04:07:17;18.20;75.70
76878;DHT22;65843;50.692;12.844;2023-08-06T04:08:18;18.20;75.70
76878;DHT22;65843;50.692;12.844;2023-08-06T04:09:19;18.20;75.70
76878;DHT22;65843;50.692;12.844;2023-08-06T04:10:20;18.20;75.70
76878;DHT22;65843;50.692;12.844;2023-08-06T04:11:21;18.20;75.60
76878;DHT22;65843;50.692;12.844;2023-08-06T04:12:23;18.20;75.60
76878;DHT22;65843;50.692;12.844;2023-08-06T04:13:24;18.20;75.60
76878;DHT22;65843;50.692;12.844;2023-08-06T04:14:26;18.20;75.60
76878;DHT22;65843;50.692;12.844;2023-08-06T04:15:26;18.20;75.50
76878;DHT22;65843;50.692;12.844;2023-08-06T04:16:27;18.20;75.50
76878;DHT22;65843;50.692;12.844;2023-08-06T04:17:28;18.20;75.50
76878;DHT22;65843;50.692;12.844;2023-08-06T04:18:29;18.20;75.50
76878;DHT22;65843;50.692;12.844;2023-08-06T04:19:30;18.20;75.60
76878;DHT22;65843;50.692;12.844;2023-08-06T04:20:31;18.20;75.50
76878;DHT22;65843;50.692;12.844;2023-08-06T04:21:32;18.20;75.50
76878;DHT22;65843;50.692;12.844;2023-08-06T04:22:33;18.20;75.60
76878;DHT22;65843;50.692;12.844;2023-08-06T04:23:34;18.20;75.50
76878;DHT22;65843;50.692;12.844;2023-08-06T04:24:36;18.20;75.50
76878;DHT22;65843;50.692;12.844;2023-08-06T04:25:37;18.20;75.50
76878;DHT22;65843;50.692;12.844;2023-08-06T04:26:38;18.20;75.50
76878;DHT22;65843;50.692;12.844;2023-08-06T04:27:39;18.20;75.50
76878;DHT22;65843;50.692;12.844;2023-08-06T04:28:42;18.20;75.50
76878;DHT22;65843;50.692;12.844;2023-08-06T04:29:43;18.20;75.60
76878;DHT22;65843;50.692;12.844;2023-08-06T04:30:43;18.20;75.70
76878;DHT22;65843;50.692;12.844;2023-08-06T04:31:44;18.20;75.60
76878;DHT22;65843;50.692;12.844;2023-08-06T04:32:45;18.20;75.60
76878;DHT22;65843;50.692;12.844;2023-08-06T04:33:46;18.10;75.70
76878;DHT22;65843;50.692;12.844;2023-08-06T04:34:47;18.20;75.70
76878;DHT22;65843;50.692;12.844;2023-08-06T04:35:53;18.20;75.60
76878;DHT22;65843;50.692;12.844;2023-08-06T04:36:54;18.20;75.70
76878;DHT22;65843;50.692;12.844;2023-08-06T04:37:55;18.20;75.70
76878;DHT22;65843;50.692;12.844;2023-08-06T04:38:56;18.10;75.70
76878;DHT22;65843;50.692;12.844;2023-08-06T04:39:57;18.10;75.70
76878;DHT22;65843;50.692;12.844;2023-08-06T04:40:57;18.10;75.80
76878;DHT22;65843;50.692;12.844;2023-08-06T04:41:58;18.10;75.80
76878;DHT22;65843;50.692;12.844;2023-08-06T04:42:59;18.10;75.80
76878;DHT22;65843;50.692;12.844;2023-08-06T04:44:01;18.10;75.90
76878;DHT22;65843;50.692;12.844;2023-08-06T04:45:02;18.20;75.90
76878;DHT22;65843;50.692;12.844;2023-08-06T04:46:03;18.20;75.80
76878;DHT22;65843;50.692;12.844;2023-08-06T04:47:04;18.20;75.90
76878;DHT22;65843;50.692;12.844;2023-08-06T04:48:05;18.20;75.90
76878;DHT22;65843;50.692;12.844;2023-08-06T04:49:06;18.20;75.90
76878;DHT22;65843;50.692;12.844;2023-08-06T04:50:07;18.20;75.90
76878;DHT22;65843;50.692;12.844;2023-08-06T04:51:08;18.20;75.80
76878;DHT22;65843;50.692;12.844;2023-08-06T04:52:08;18.20;75.80
76878;DHT22;65843;50.692;12.844;2023-08-06T04:53:09;18.20;75.70
76878;DHT22;65843;50.692;12.844;2023-08-06T04:54:10;18.20;75.90
76878;DHT22;65843;50.692;12.844;2023-08-06T04:55:11;18.20;75.80
76878;DHT22;65843;50.692;12.844;2023-08-06T04:56:12;18.20;75.70
76878;DHT22;65843;50.692;12.844;2023-08-06T04:57:13;18.20;75.80
76878;DHT22;65843;50.692;12.844;2023-08-06T04:58:14;18.20;75.70
76878;DHT22;65843;50.692;12.844;2023-08-06T04:59:15;18.20;75.90
76878;DHT22;65843;50.692;12.844;2023-08-06T05:00:16;18.20;75.80
76878;DHT22;65843;50.692;12.844;2023-08-06T05:01:17;18.20;75.90
76878;DHT22;65843;50.692;12.844;2023-08-06T05:02:18;18.20;75.80
76878;DHT22;65843;50.692;12.844;2023-08-06T05:03:18;18.20;75.70
76878;DHT22;65843;50.692;12.844;2023-08-06T05:04:19;18.20;75.70
76878;DHT22;65843;50.692;12.844;2023-08-06T05:05:20;18.30;75.70
76878;DHT22;65843;50.692;12.844;2023-08-06T05:06:21;18.20;75.70
76878;DHT22;65843;50.692;12.844;2023-08-06T05:07:22;18.20;75.70
76878;DHT22;65843;50.692;12.844;2023-08-06T05:08:23;18.20;75.50
76878;DHT22;65843;50.692;12.844;2023-08-06T05:09:24;18.20;75.70
76878;DHT22;65843;50.692;12.844;2023-08-06T05:10:25;18.20;75.60
76878;DHT22;65843;50.692;12.844;2023-08-06T05:11:26;18.20;75.70
76878;DHT22;65843;50.692;12.844;2023-08-06T05:12:27;18.20;75.60
76878;DHT22;65843;50.692;12.844;2023-08-06T05:13:28;18.20;75.60
76878;DHT22;65843;50.692;12.844;2023-08-06T05:14:29;18.20;75.80
76878;DHT22;65843;50.692;12.844;2023-08-06T05:15:30;18.20;75.80
76878;DHT22;65843;50.692;12.844;2023-08-06T05:16:31;18.20;75.80
76878;DHT22;65843;50.692;12.844;2023-08-06T05:17:32;18.20;75.80
76878;DHT22;65843;50.692;12.844;2023-08-06T05:18:33;18.20;75.70
76878;DHT22;65843;50.692;12.844;2023-08-06T05:19:35;18.20;75.70
76878;DHT22;65843;50.692;12.844;2023-08-06T05:20:36;18.20;75.80
76878;DHT22;65843;50.692;12.844;2023-08-06T05:21:38;18.20;75.80
76878;DHT22;65843;50.692;12.844;2023-08-06T05:22:38;18.20;75.70
76878;DHT22;65843;50.692;12.844;2023-08-06T05:23:39;18.20;75.70
76878;DHT22;65843;50.692;12.844;2023-08-06T05:24:40;18.20;75.70
76878;DHT22;65843;50.692;12.844;2023-08-06T05:25:41;18.20;75.70
76878;DHT22;65843;50.692;12.844;2023-08-06T05:26:42;18.20;75.80
76878;DHT22;65843;50.692;12.844;2023-08-06T05:27:47;18.20;75.80
76878;DHT22;65843;50.692;12.844;2023-08-06T05:28:47;18.10;75.70
76878;DHT22;65843;50.692;12.844;2023-08-06T05:29:48;18.20;75.80
76878;DHT22;65843;50.692;12.844;2023-08-06T05:30:49;18.20;75.80
76878;DHT22;65843;50.692;12.844;2023-08-06T05:31:50;18.20;75.90
76878;DHT22;65843;50.692;12.844;2023-08-06T05:32:51;18.20;75.80
76878;DHT22;65843;50.692;12.844;2023-08-06T05:33:52;18.20;75.80
76878;DHT22;65843;50.692;12.844;2023-08-06T05:34:53;18.20;75.80
76878;DHT22;65843;50.692;12.844;2023-08-06T05:35:54;18.20;75.90
76878;DHT22;65843;50.692;12.844;2023-08-06T05:36:55;18.20;75.80
76878;DHT22;65843;50.692;12.844;2023-08-06T05:37:56;18.20;75.80
76878;DHT22;65843;50.692;12.844;2023-08-06T05:38:57;18.20;75.80
76878;DHT22;65843;50.692;12.844;2023-08-06T05:39:59;18.20;75.80
76878;DHT22;65843;50.692;12.844;2023-08-06T05:41:00;18.20;75.80
76878;DHT22;65843;50.692;12.844;2023-08-06T05:42:00;18.20;75.80
76878;DHT22;65843;50.692;12.844;2023-08-06T05:43:01;18.20;75.80
76878;DHT22;65843;50.692;12.844;2023-08-06T05:44:02;18.20;75.80
76878;DHT22;65843;50.692;12.844;2023-08-06T05:45:03;18.20;75.90
76878;DHT22;65843;50.692;12.844;2023-08-06T05:46:04;18.20;75.80
76878;DHT22;65843;50.692;12.844;2023-08-06T05:47:05;18.20;75.90
76878;DHT22;65843;50.692;12.844;2023-08-06T05:48:06;18.20;75.80
76878;DHT22;65843;50.692;12.844;2023-08-06T05:49:07;18.20;75.70
76878;DHT22;65843;50.692;12.844;2023-08-06T05:50:08;18.30;75.80
76878;DHT22;65843;50.692;12.844;2023-08-06T05:51:09;18.30;75.80
76878;DHT22;65843;50.692;12.844;2023-08-06T05:52:13;18.20;75.80
76878;DHT22;65843;50.692;12.844;2023-08-06T05:53:14;18.20;75.70
76878;DHT22;65843;50.692;12.844;2023-08-06T05:54:15;18.30;75.80
76878;DHT22;65843;50.692;12.844;2023-08-06T05:55:16;18.20;75.70
76878;DHT22;65843;50.692;12.844;2023-08-06T05:56:17;18.20;75.70
76878;DHT22;65843;50.692;12.844;2023-08-06T05:57:18;18.20;75.70
76878;DHT22;65843;50.692;12.844;2023-08-06T05:58:19;18.20;75.70
76878;DHT22;65843;50.692;12.844;2023-08-06T05:59:21;18.20;75.70
76878;DHT22;65843;50.692;12.844;2023-08-06T06:00:22;18.20;75.70
76878;DHT22;65843;50.692;12.844;2023-08-06T06:01:23;18.20;75.70
76878;DHT22;65843;50.692;12.844;2023-08-06T06:02:24;18.20;75.80
76878;DHT22;65843;50.692;12.844;2023-08-06T06:03:25;18.20;75.80
76878;DHT22;65843;50.692;12.844;2023-08-06T06:04:26;18.20;75.70
76878;DHT22;65843;50.692;12.844;2023-08-06T06:05:27;18.20;75.80
76878;DHT22;65843;50.692;12.844;2023-08-06T06:06:28;18.20;75.90
76878;DHT22;65843;50.692;12.844;2023-08-06T06:07:29;18.20;76.00
76878;DHT22;65843;50.692;12.844;2023-08-06T06:08:29;18.20;76.00
76878;DHT22;65843;50.692;12.844;2023-08-06T06:09:30;18.20;76.00
76878;DHT22;65843;50.692;12.844;2023-08-06T06:10:31;18.20;75.90
76878;DHT22;65843;50.692;12.844;2023-08-06T06:11:32;18.20;75.90
76878;DHT22;65843;50.692;12.844;2023-08-06T06:12:33;18.20;75.90
76878;DHT22;65843;50.692;12.844;2023-08-06T06:13:34;18.20;76.00
76878;DHT22;65843;50.692;12.844;2023-08-06T06:14:35;18.20;76.00
76878;DHT22;65843;50.692;12.844;2023-08-06T06:15:36;18.20;75.90
76878;DHT22;65843;50.692;12.844;2023-08-06T06:16:37;18.20;75.90
76878;DHT22;65843;50.692;12.844;2023-08-06T06:17:38;18.20;76.00
76878;DHT22;65843;50.692;12.844;2023-08-06T06:18:39;18.20;76.00
76878;DHT22;65843;50.692;12.844;2023-08-06T06:19:40;18.20;76.00
76878;DHT22;65843;50.692;12.844;2023-08-06T06:20:41;18.20;76.00
76878;DHT22;65843;50.692;12.844;2023-08-06T06:21:42;18.20;75.90
76878;DHT22;65843;50.692;12.844;2023-08-06T06:22:42;18.20;75.90
76878;DHT22;65843;50.692;12.844;2023-08-06T06:23:43;18.20;75.90
76878;DHT22;65843;50.692;12.844;2023-08-06T06:24:44;18.20;75.90
76878;DHT22;65843;50.692;12.844;2023-08-06T06:25:48;18.20;76.00